sensor_id;sensor_type;location;lat;lon;timestamp;P1;durP1;ratioP1;P2;durP2;ratioP2
15159;SDS011;7680;48.800;9.680;2023-07-29T00:03:06;4.20;;;3.78;;
15159;SDS011;7680;48.800;9.680;2023-07-29T00:08:09;5.65;;;4.35;;
15159;SDS011;7680;48.800;9.680;2023-07-29T00:13:13;4.32;;;4.03;;
15159;SDS011;7680;48.800;9.680;2023-07-29T00:18:18;3.85;;;3.50;;
15159;SDS011;7680;48.800;9.680;2023-07-29T00:23:21;4.00;;;3.70;;
15159;SDS011;7680;48.800;9.680;2023-07-29T00:28:24;5.90;;;3.85;;
15159;SDS011;7680;48.800;9.680;2023-07-29T00:33:29;3.53;;;3.20;;
15159;SDS011;7680;48.800;9.680;2023-07-29T00:38:32;4.82;;;3.60;;
15159;SDS011;7680;48.800;9.680;2023-07-29T00:43:35;3.97;;;3.58;;
15159;SDS011;7680;48.800;9.680;2023-07-29T00:48:40;2.97;;;2.78;;
15159;SDS011;7680;48.800;9.680;2023-07-29T00:53:43;3.28;;;3.03;;
15159;SDS011;7680;48.800;9.680;2023-07-29T00:58:46;5.07;;;3.40;;
15159;SDS011;7680;48.800;9.680;2023-07-29T01:03:51;4.35;;;3.20;;
15159;SDS011;7680;48.800;9.680;2023-07-29T01:08:55;3.22;;;2.85;;
15159;SDS011;7680;48.800;9.680;2023-07-29T01:14:07;4.45;;;3.00;;
15159;SDS011;7680;48.800;9.680;2023-07-29T01:19:31;3.15;;;2.28;;
15159;SDS011;7680;48.800;9.680;2023-07-29T01:25:01;3.97;;;2.78;;
15159;SDS011;7680;48.800;9.680;2023-07-29T01:30:06;3.88;;;2.85;;
15159;SDS011;7680;48.800;9.680;2023-07-29T01:35:13;3.00;;;2.80;;
15159;SDS011;7680;48.800;9.680;2023-07-29T01:40:27;2.70;;;2.50;;
15159;SDS011;7680;48.800;9.680;2023-07-29T01:45:31;2.40;;;2.30;;
15159;SDS011;7680;48.800;9.680;2023-07-29T01:50:37;2.17;;;2.03;;
15159;SDS011;7680;48.800;9.680;2023-07-29T01:55:42;2.35;;;2.15;;
15159;SDS011;7680;48.800;9.680;2023-07-29T02:00:46;2.78;;;2.60;;
15159;SDS011;7680;48.800;9.680;2023-07-29T02:05:49;3.95;;;2.70;;
15159;SDS011;7680;48.800;9.680;2023-07-29T02:10:54;3.15;;;2.72;;
15159;SDS011;7680;48.800;9.680;2023-07-29T02:15:57;2.50;;;2.30;;
15159;SDS011;7680;48.800;9.680;2023-07-29T02:21:00;3.53;;;2.40;;
15159;SDS011;7680;48.800;9.680;2023-07-29T02:26:05;2.63;;;2.42;;
15159;SDS011;7680;48.800;9.680;2023-07-29T02:31:09;2.63;;;2.15;;
15159;SDS011;7680;48.800;9.680;2023-07-29T02:36:18;2.38;;;2.28;;
15159;SDS011;7680;48.800;9.680;2023-07-29T02:41:23;1.95;;;1.85;;
15159;SDS011;7680;48.800;9.680;2023-07-29T02:46:26;2.60;;;2.40;;
15159;SDS011;7680;48.800;9.680;2023-07-29T02:51:29;4.47;;;2.60;;
15159;SDS011;7680;48.800;9.680;2023-07-29T02:56:34;2.70;;;2.50;;
15159;SDS011;7680;48.800;9.680;2023-07-29T03:01:37;2.78;;;2.58;;
15159;SDS011;7680;48.800;9.680;2023-07-29T03:06:41;2.88;;;2.50;;
15159;SDS011;7680;48.800;9.680;2023-07-29T03:11:45;2.50;;;2.30;;
15159;SDS011;7680;48.800;9.680;2023-07-29T03:16:48;2.70;;;2.50;;
15159;SDS011;7680;48.800;9.680;2023-07-29T03:21:52;3.00;;;2.80;;
15159;SDS011;7680;48.800;9.680;2023-07-29T03:26:56;2.78;;;2.58;;
15159;SDS011;7680;48.800;9.680;2023-07-29T03:31:59;2.60;;;2.40;;
15159;SDS011;7680;48.800;9.680;2023-07-29T03:37:02;3.00;;;2.80;;
15159;SDS011;7680;48.800;9.680;2023-07-29T03:42:08;3.92;;;2.70;;
15159;SDS011;7680;48.800;9.680;2023-07-29T03:47:11;2.47;;;2.17;;
15159;SDS011;7680;48.800;9.680;2023-07-29T03:52:14;2.53;;;2.40;;
15159;SDS011;7680;48.800;9.680;2023-07-29T03:57:19;2.85;;;2.58;;
15159;SDS011;7680;48.800;9.680;2023-07-29T04:02:22;2.58;;;2.38;;
15159;SDS011;7680;48.800;9.680;2023-07-29T04:07:25;2.60;;;2.40;;
15159;SDS011;7680;48.800;9.680;2023-07-29T04:12:30;2.72;;;2.40;;
15159;SDS011;7680;48.800;9.680;2023-07-29T04:17:33;2.60;;;2.30;;
15159;SDS011;7680;48.800;9.680;2023-07-29T04:22:37;2.90;;;2.55;;
15159;SDS011;7680;48.800;9.680;2023-07-29T04:27:41;1.98;;;1.77;;
15159;SDS011;7680;48.800;9.680;2023-07-29T04:32:44;1.70;;;1.60;;
15159;SDS011;7680;48.800;9.680;2023-07-29T04:37:49;2.00;;;1.90;;
15159;SDS011;7680;48.800;9.680;2023-07-29T04:42:54;2.35;;;2.15;;
15159;SDS011;7680;48.800;9.680;2023-07-29T04:47:57;2.40;;;2.30;;
15159;SDS011;7680;48.800;9.680;2023-07-29T04:53:01;2.75;;;2.20;;
15159;SDS011;7680;48.800;9.680;2023-07-29T04:58:05;2.40;;;2.20;;
15159;SDS011;7680;48.800;9.680;2023-07-29T05:03:08;3.20;;;2.90;;
15159;SDS011;7680;48.800;9.680;2023-07-29T05:08:12;2.72;;;2.50;;
15159;SDS011;7680;48.800;9.680;2023-07-29T05:13:17;3.30;;;2.90;;
15159;SDS011;7680;48.800;9.680;2023-07-29T05:18:20;4.05;;;2.95;;
15159;SDS011;7680;48.800;9.680;2023-07-29T05:23:24;3.28;;;2.97;;
15159;SDS011;7680;48.800;9.680;2023-07-29T05:28:29;2.70;;;2.50;;
15159;SDS011;7680;48.800;9.680;2023-07-29T05:33:32;3.30;;;2.58;;
15159;SDS011;7680;48.800;9.680;2023-07-29T05:38:37;3.13;;;2.58;;
15159;SDS011;7680;48.800;9.680;2023-07-29T05:43:42;2.85;;;2.65;;
15159;SDS011;7680;48.800;9.680;2023-07-29T05:48:46;3.35;;;2.70;;
15159;SDS011;7680;48.800;9.680;2023-07-29T05:53:49;3.40;;;3.00;;
15159;SDS011;7680;48.800;9.680;2023-07-29T05:58:54;3.28;;;2.90;;
15159;SDS011;7680;48.800;9.680;2023-07-29T06:03:57;3.50;;;3.20;;
15159;SDS011;7680;48.800;9.680;2023-07-29T06:09:00;3.83;;;3.47;;
15159;SDS011;7680;48.800;9.680;2023-07-29T06:14:05;3.97;;;3.40;;
15159;SDS011;7680;48.800;9.680;2023-07-29T06:19:08;4.10;;;3.80;;
15159;SDS011;7680;48.800;9.680;2023-07-29T06:24:12;5.25;;;4.75;;
15159;SDS011;7680;48.800;9.680;2023-07-29T06:29:16;5.10;;;4.55;;
15159;SDS011;7680;48.800;9.680;2023-07-29T06:34:19;4.30;;;4.00;;
15159;SDS011;7680;48.800;9.680;2023-07-29T06:39:27;3.38;;;3.08;;
15159;SDS011;7680;48.800;9.680;2023-07-29T06:44:32;3.40;;;3.10;;
15159;SDS011;7680;48.800;9.680;2023-07-29T06:49:35;3.15;;;2.80;;
15159;SDS011;7680;48.800;9.680;2023-07-29T06:54:38;3.13;;;2.83;;
15159;SDS011;7680;48.800;9.680;2023-07-29T06:59:43;2.90;;;2.70;;
15159;SDS011;7680;48.800;9.680;2023-07-29T07:04:46;3.55;;;2.95;;
15159;SDS011;7680;48.800;9.680;2023-07-29T07:09:50;2.88;;;2.67;;
15159;SDS011;7680;48.800;9.680;2023-07-29T07:14:54;3.28;;;2.60;;
15159;SDS011;7680;48.800;9.680;2023-07-29T07:19:58;2.50;;;2.30;;
15159;SDS011;7680;48.800;9.680;2023-07-29T07:25:01;3.13;;;2.53;;
15159;SDS011;7680;48.800;9.680;2023-07-29T07:30:10;4.70;;;2.55;;
15159;SDS011;7680;48.800;9.680;2023-07-29T07:35:14;4.05;;;3.10;;
15159;SDS011;7680;48.800;9.680;2023-07-29T07:40:17;4.20;;;3.10;;
15159;SDS011;7680;48.800;9.680;2023-07-29T07:45:22;4.50;;;3.08;;
15159;SDS011;7680;48.800;9.680;2023-07-29T07:50:25;4.05;;;3.28;;
15159;SDS011;7680;48.800;9.680;2023-07-29T07:55:32;3.30;;;2.90;;
15159;SDS011;7680;48.800;9.680;2023-07-29T08:00:36;3.05;;;2.80;;
15159;SDS011;7680;48.800;9.680;2023-07-29T08:05:40;2.90;;;2.65;;
15159;SDS011;7680;48.800;9.680;2023-07-29T08:10:43;2.50;;;2.30;;
15159;SDS011;7680;48.800;9.680;2023-07-29T08:15:48;2.15;;;1.95;;
15159;SDS011;7680;48.800;9.680;2023-07-29T08:20:53;2.13;;;1.92;;
15159;SDS011;7680;48.800;9.680;2023-07-29T08:25:59;2.30;;;2.08;;
15159;SDS011;7680;48.800;9.680;2023-07-29T08:31:06;2.08;;;1.90;;
15159;SDS011;7680;48.800;9.680;2023-07-29T08:36:10;2.75;;;2.17;;
15159;SDS011;7680;48.800;9.680;2023-07-29T08:41:14;4.10;;;2.58;;
15159;SDS011;7680;48.800;9.680;2023-07-29T08:46:24;2.97;;;1.92;;
15159;SDS011;7680;48.800;9.680;2023-07-29T08:51:28;2.50;;;2.28;;
15159;SDS011;7680;48.800;9.680;2023-07-29T08:56:34;3.00;;;2.65;;
15159;SDS011;7680;48.800;9.680;2023-07-29T09:01:39;3.08;;;2.42;;
15159;SDS011;7680;48.800;9.680;2023-07-29T09:06:43;3.28;;;2.13;;
15159;SDS011;7680;48.800;9.680;2023-07-29T09:11:48;2.80;;;2.47;;
15159;SDS011;7680;48.800;9.680;2023-07-29T09:16:53;3.00;;;2.78;;
15159;SDS011;7680;48.800;9.680;2023-07-29T09:21:56;3.00;;;2.53;;
15159;SDS011;7680;48.800;9.680;2023-07-29T09:27:00;2.75;;;2.55;;
15159;SDS011;7680;48.800;9.680;2023-07-29T09:32:20;2.85;;;2.65;;
15159;SDS011;7680;48.800;9.680;2023-07-29T09:37:25;4.03;;;2.97;;
15159;SDS011;7680;48.800;9.680;2023-07-29T09:42:28;3.97;;;2.60;;
15159;SDS011;7680;48.800;9.680;2023-07-29T09:47:33;2.95;;;2.67;;
15159;SDS011;7680;48.800;9.680;2023-07-29T09:52:37;2.60;;;2.40;;
15159;SDS011;7680;48.800;9.680;2023-07-29T09:57:40;2.70;;;2.50;;
15159;SDS011;7680;48.800;9.680;2023-07-29T10:02:47;2.50;;;2.30;;
15159;SDS011;7680;48.800;9.680;2023-07-29T10:07:50;2.47;;;2.22;;
15159;SDS011;7680;48.800;9.680;2023-07-29T10:12:54;2.40;;;2.20;;
15159;SDS011;7680;48.800;9.680;2023-07-29T10:18:00;3.75;;;2.10;;
15159;SDS011;7680;48.800;9.680;2023-07-29T10:23:05;2.47;;;2.20;;
15159;SDS011;7680;48.800;9.680;2023-07-29T10:28:11;2.67;;;2.42;;
15159;SDS011;7680;48.800;9.680;2023-07-29T10:33:19;2.78;;;2.35;;
15159;SDS011;7680;48.800;9.680;2023-07-29T10:38:23;2.60;;;2.40;;
15159;SDS011;7680;48.800;9.680;2023-07-29T10:43:31;2.35;;;2.25;;
15159;SDS011;7680;48.800;9.680;2023-07-29T10:48:44;2.42;;;2.28;;
15159;SDS011;7680;48.800;9.680;2023-07-29T10:53:55;2.75;;;2.03;;
15159;SDS011;7680;48.800;9.680;2023-07-29T10:59:03;1.48;;;1.38;;
15159;SDS011;7680;48.800;9.680;2023-07-29T11:04:45;1.60;;;1.08;;
15159;SDS011;7680;48.800;9.680;2023-07-29T11:09:54;1.17;;;1.10;;
15159;SDS011;7680;48.800;9.680;2023-07-29T11:15:11;1.17;;;1.10;;
15159;SDS011;7680;48.800;9.680;2023-07-29T11:20:22;1.58;;;1.10;;
15159;SDS011;7680;48.800;9.680;2023-07-29T11:25:28;1.50;;;1.40;;
15159;SDS011;7680;48.800;9.680;2023-07-29T11:30:32;1.83;;;1.73;;
15159;SDS011;7680;48.800;9.680;2023-07-29T11:35:37;1.20;;;1.20;;
15159;SDS011;7680;48.800;9.680;2023-07-29T11:40:41;2.85;;;1.50;;
15159;SDS011;7680;48.800;9.680;2023-07-29T11:45:44;1.83;;;1.70;;
15159;SDS011;7680;48.800;9.680;2023-07-29T11:50:54;1.90;;;1.50;;
15159;SDS011;7680;48.800;9.680;2023-07-29T11:55:58;1.70;;;1.60;;
15159;SDS011;7680;48.800;9.680;2023-07-29T12:01:01;1.85;;;1.65;;
15159;SDS011;7680;48.800;9.680;2023-07-29T12:06:07;1.98;;;1.73;;
15159;SDS011;7680;48.800;9.680;2023-07-29T12:11:10;1.70;;;1.60;;
15159;SDS011;7680;48.800;9.680;2023-07-29T12:16:16;1.52;;;1.42;;
15159;SDS011;7680;48.800;9.680;2023-07-29T12:21:21;2.05;;;1.70;;
15159;SDS011;7680;48.800;9.680;2023-07-29T12:26:26;1.67;;;1.58;;
15159;SDS011;7680;48.800;9.680;2023-07-29T12:31:30;1.80;;;1.70;;
15159;SDS011;7680;48.800;9.680;2023-07-29T12:36:43;1.65;;;1.55;;
15159;SDS011;7680;48.800;9.680;2023-07-29T12:41:48;2.00;;;1.80;;
15159;SDS011;7680;48.800;9.680;2023-07-29T12:46:53;2.25;;;1.95;;
15159;SDS011;7680;48.800;9.680;2023-07-29T12:51:58;1.95;;;1.80;;
15159;SDS011;7680;48.800;9.680;2023-07-29T12:57:02;2.65;;;1.90;;
15159;SDS011;7680;48.800;9.680;2023-07-29T13:02:05;2.03;;;1.83;;
15159;SDS011;7680;48.800;9.680;2023-07-29T13:07:10;1.88;;;1.77;;
15159;SDS011;7680;48.800;9.680;2023-07-29T13:12:13;1.90;;;1.80;;
15159;SDS011;7680;48.800;9.680;2023-07-29T13:17:17;2.88;;;1.73;;
15159;SDS011;7680;48.800;9.680;2023-07-29T13:22:22;1.88;;;1.77;;
15159;SDS011;7680;48.800;9.680;2023-07-29T13:27:25;3.15;;;2.95;;
15159;SDS011;7680;48.800;9.680;2023-07-29T13:32:28;1.98;;;1.88;;
15159;SDS011;7680;48.800;9.680;2023-07-29T13:37:33;2.03;;;1.90;;
15159;SDS011;7680;48.800;9.680;2023-07-29T13:42:36;2.03;;;1.92;;
15159;SDS011;7680;48.800;9.680;2023-07-29T13:47:39;2.33;;;2.13;;
15159;SDS011;7680;48.800;9.680;2023-07-29T13:52:44;2.03;;;1.83;;
15159;SDS011;7680;48.800;9.680;2023-07-29T13:57:48;2.30;;;2.10;;
15159;SDS011;7680;48.800;9.680;2023-07-29T14:02:51;2.60;;;2.40;;
15159;SDS011;7680;48.800;9.680;2023-07-29T14:07:56;2.20;;;2.00;;
15159;SDS011;7680;48.800;9.680;2023-07-29T14:12:59;2.20;;;2.10;;
15159;SDS011;7680;48.800;9.680;2023-07-29T14:18:02;2.53;;;2.33;;
15159;SDS011;7680;48.800;9.680;2023-07-29T14:23:07;2.30;;;2.10;;
15159;SDS011;7680;48.800;9.680;2023-07-29T14:28:14;2.50;;;2.08;;
15159;SDS011;7680;48.800;9.680;2023-07-29T14:33:17;2.28;;;2.08;;
15159;SDS011;7680;48.800;9.680;2023-07-29T14:38:22;2.40;;;2.28;;
15159;SDS011;7680;48.800;9.680;2023-07-29T14:43:25;2.58;;;2.38;;
15159;SDS011;7680;48.800;9.680;2023-07-29T14:48:29;2.85;;;2.05;;
15159;SDS011;7680;48.800;9.680;2023-07-29T14:53:34;2.53;;;2.20;;
15159;SDS011;7680;48.800;9.680;2023-07-29T14:58:37;3.47;;;2.40;;
15159;SDS011;7680;48.800;9.680;2023-07-29T15:03:41;2.10;;;2.00;;
15159;SDS011;7680;48.800;9.680;2023-07-29T15:08:48;2.50;;;2.40;;
15159;SDS011;7680;48.800;9.680;2023-07-29T15:13:51;2.80;;;2.20;;
15159;SDS011;7680;48.800;9.680;2023-07-29T15:18:55;1.95;;;1.85;;
15159;SDS011;7680;48.800;9.680;2023-07-29T15:23:59;2.13;;;2.03;;
15159;SDS011;7680;48.800;9.680;2023-07-29T15:29:03;2.15;;;2.05;;
15159;SDS011;7680;48.800;9.680;2023-07-29T15:34:08;2.30;;;2.20;;
15159;SDS011;7680;48.800;9.680;2023-07-29T15:39:13;2.88;;;2.40;;
15159;SDS011;7680;48.800;9.680;2023-07-29T15:44:16;1.88;;;1.77;;
15159;SDS011;7680;48.800;9.680;2023-07-29T15:49:19;2.30;;;2.20;;
15159;SDS011;7680;48.800;9.680;2023-07-29T15:54:24;2.50;;;2.30;;
15159;SDS011;7680;48.800;9.680;2023-07-29T15:59:27;3.03;;;2.75;;
15159;SDS011;7680;48.800;9.680;2023-07-29T16:04:31;2.67;;;2.47;;
15159;SDS011;7680;48.800;9.680;2023-07-29T16:09:36;2.88;;;2.40;;
15159;SDS011;7680;48.800;9.680;2023-07-29T16:14:39;2.70;;;2.50;;
15159;SDS011;7680;48.800;9.680;2023-07-29T16:19:52;2.83;;;2.53;;
15159;SDS011;7680;48.800;9.680;2023-07-29T16:24:58;3.00;;;2.67;;
15159;SDS011;7680;48.800;9.680;2023-07-29T16:30:02;3.00;;;2.70;;
15159;SDS011;7680;48.800;9.680;2023-07-29T16:35:07;2.50;;;2.30;;
15159;SDS011;7680;48.800;9.680;2023-07-29T16:40:12;2.35;;;2.15;;
15159;SDS011;7680;48.800;9.680;2023-07-29T16:45:16;2.58;;;2.33;;
15159;SDS011;7680;48.800;9.680;2023-07-29T16:50:19;3.08;;;2.80;;
15159;SDS011;7680;48.800;9.680;2023-07-29T16:55:24;2.47;;;2.30;;
15159;SDS011;7680;48.800;9.680;2023-07-29T17:00:27;2.78;;;2.30;;
15159;SDS011;7680;48.800;9.680;2023-07-29T17:05:31;2.65;;;2.45;;
15159;SDS011;7680;48.800;9.680;2023-07-29T17:10:36;3.30;;;2.67;;
15159;SDS011;7680;48.800;9.680;2023-07-29T17:15:39;2.40;;;2.28;;
15159;SDS011;7680;48.800;9.680;2023-07-29T17:20:42;2.75;;;2.55;;
15159;SDS011;7680;48.800;9.680;2023-07-29T17:25:47;3.85;;;2.30;;
15159;SDS011;7680;48.800;9.680;2023-07-29T17:30:50;3.60;;;2.58;;
15159;SDS011;7680;48.800;9.680;2023-07-29T17:35:54;3.50;;;2.47;;
15159;SDS011;7680;48.800;9.680;2023-07-29T17:40:58;2.85;;;2.65;;
15159;SDS011;7680;48.800;9.680;2023-07-29T17:46:03;2.53;;;2.33;;
15159;SDS011;7680;48.800;9.680;2023-07-29T17:51:06;2.47;;;2.20;;
15159;SDS011;7680;48.800;9.680;2023-07-29T17:56:12;3.33;;;1.40;;
15159;SDS011;7680;48.800;9.680;2023-07-29T18:01:15;3.95;;;1.40;;
15159;SDS011;7680;48.800;9.680;2023-07-29T18:06:18;2.78;;;1.40;;
15159;SDS011;7680;48.800;9.680;2023-07-29T18:11:23;2.38;;;1.92;;
15159;SDS011;7680;48.800;9.680;2023-07-29T18:16:26;2.50;;;1.83;;
15159;SDS011;7680;48.800;9.680;2023-07-29T18:21:30;4.25;;;2.40;;
15159;SDS011;7680;48.800;9.680;2023-07-29T18:26:35;7.88;;;2.90;;
15159;SDS011;7680;48.800;9.680;2023-07-29T18:31:38;3.03;;;2.67;;
15159;SDS011;7680;48.800;9.680;2023-07-29T18:36:42;4.70;;;2.55;;
15159;SDS011;7680;48.800;9.680;2023-07-29T18:41:48;2.72;;;1.98;;
15159;SDS011;7680;48.800;9.680;2023-07-29T18:46:51;3.22;;;2.40;;
15159;SDS011;7680;48.800;9.680;2023-07-29T18:51:57;3.88;;;3.45;;
15159;SDS011;7680;48.800;9.680;2023-07-29T18:57:01;4.32;;;3.38;;
15159;SDS011;7680;48.800;9.680;2023-07-29T19:02:05;5.07;;;4.20;;
15159;SDS011;7680;48.800;9.680;2023-07-29T19:07:09;4.70;;;3.95;;
15159;SDS011;7680;48.800;9.680;2023-07-29T19:12:13;4.32;;;3.92;;
15159;SDS011;7680;48.800;9.680;2023-07-29T19:17:17;6.05;;;3.97;;
15159;SDS011;7680;48.800;9.680;2023-07-29T19:22:20;4.55;;;3.38;;
15159;SDS011;7680;48.800;9.680;2023-07-29T19:27:25;3.65;;;3.05;;
15159;SDS011;7680;48.800;9.680;2023-07-29T19:32:28;4.90;;;3.45;;
15159;SDS011;7680;48.800;9.680;2023-07-29T19:37:32;4.82;;;4.03;;
15159;SDS011;7680;48.800;9.680;2023-07-29T19:42:36;5.00;;;3.83;;
15159;SDS011;7680;48.800;9.680;2023-07-29T19:47:40;4.63;;;4.22;;
15159;SDS011;7680;48.800;9.680;2023-07-29T19:52:43;4.68;;;4.18;;
15159;SDS011;7680;48.800;9.680;2023-07-29T19:57:48;5.57;;;4.35;;
15159;SDS011;7680;48.800;9.680;2023-07-29T20:02:51;4.70;;;4.18;;
15159;SDS011;7680;48.800;9.680;2023-07-29T20:07:54;4.45;;;4.05;;
15159;SDS011;7680;48.800;9.680;2023-07-29T20:12:59;4.10;;;3.70;;
15159;SDS011;7680;48.800;9.680;2023-07-29T20:18:02;4.30;;;3.90;;
15159;SDS011;7680;48.800;9.680;2023-07-29T20:23:06;5.47;;;4.93;;
15159;SDS011;7680;48.800;9.680;2023-07-29T20:28:11;5.95;;;5.32;;
15159;SDS011;7680;48.800;9.680;2023-07-29T20:33:16;4.97;;;4.45;;
15159;SDS011;7680;48.800;9.680;2023-07-29T20:38:19;4.72;;;4.32;;
15159;SDS011;7680;48.800;9.680;2023-07-29T20:43:24;4.07;;;3.65;;
15159;SDS011;7680;48.800;9.680;2023-07-29T20:48:27;4.47;;;4.07;;
15159;SDS011;7680;48.800;9.680;2023-07-29T20:53:32;4.95;;;4.18;;
15159;SDS011;7680;48.800;9.680;2023-07-29T20:58:37;4.20;;;3.72;;
15159;SDS011;7680;48.800;9.680;2023-07-29T21:03:40;4.55;;;4.00;;
15159;SDS011;7680;48.800;9.680;2023-07-29T21:08:45;4.35;;;3.95;;
15159;SDS011;7680;48.800;9.680;2023-07-29T21:13:50;6.65;;;5.78;;
15159;SDS011;7680;48.800;9.680;2023-07-29T21:18:53;6.50;;;5.50;;
15159;SDS011;7680;48.800;9.680;2023-07-29T21:23:57;6.07;;;5.10;;
15159;SDS011;7680;48.800;9.680;2023-07-29T21:29:01;4.85;;;4.35;;
15159;SDS011;7680;48.800;9.680;2023-07-29T21:34:05;5.43;;;4.88;;
15159;SDS011;7680;48.800;9.680;2023-07-29T21:39:08;4.55;;;4.07;;
15159;SDS011;7680;48.800;9.680;2023-07-29T21:44:13;4.80;;;4.35;;
15159;SDS011;7680;48.800;9.680;2023-07-29T21:49:16;4.35;;;4.05;;
15159;SDS011;7680;48.800;9.680;2023-07-29T21:54:19;4.78;;;4.35;;
15159;SDS011;7680;48.800;9.680;2023-07-29T21:59:24;5.03;;;4.43;;
15159;SDS011;7680;48.800;9.680;2023-07-29T22:04:27;4.75;;;4.32;;
15159;SDS011;7680;48.800;9.680;2023-07-29T22:09:31;5.32;;;4.82;;
15159;SDS011;7680;48.800;9.680;2023-07-29T22:14:35;5.50;;;4.25;;
15159;SDS011;7680;48.800;9.680;2023-07-29T22:19:39;4.93;;;4.47;;
15159;SDS011;7680;48.800;9.680;2023-07-29T22:24:42;4.90;;;4.50;;
15159;SDS011;7680;48.800;9.680;2023-07-29T22:29:47;5.28;;;4.88;;
15159;SDS011;7680;48.800;9.680;2023-07-29T22:34:50;5.13;;;4.70;;
15159;SDS011;7680;48.800;9.680;2023-07-29T22:39:53;4.45;;;4.05;;
15159;SDS011;7680;48.800;9.680;2023-07-29T22:44:58;5.70;;;4.82;;
15159;SDS011;7680;48.800;9.680;2023-07-29T22:50:01;4.13;;;3.83;;
15159;SDS011;7680;48.800;9.680;2023-07-29T22:55:05;4.10;;;3.75;;
15159;SDS011;7680;48.800;9.680;2023-07-29T23:00:11;4.57;;;4.22;;
15159;SDS011;7680;48.800;9.680;2023-07-29T23:05:15;6.47;;;4.30;;
15159;SDS011;7680;48.800;9.680;2023-07-29T23:10:19;6.90;;;5.35;;
15159;SDS011;7680;48.800;9.680;2023-07-29T23:15:24;5.13;;;4.63;;
15159;SDS011;7680;48.800;9.680;2023-07-29T23:20:27;6.13;;;5.05;;
15159;SDS011;7680;48.800;9.680;2023-07-29T23:25:30;6.32;;;5.28;;
15159;SDS011;7680;48.800;9.680;2023-07-29T23:30:35;5.70;;;5.10;;
15159;SDS011;7680;48.800;9.680;2023-07-29T23:35:39;7.05;;;6.05;;
15159;SDS011;7680;48.800;9.680;2023-07-29T23:40:42;10.98;;;6.47;;
15159;SDS011;7680;48.800;9.680;2023-07-29T23:45:46;4.93;;;3.80;;
15159;SDS011;7680;48.800;9.680;2023-07-29T23:50:50;6.18;;;4.40;;
15159;SDS011;7680;48.800;9.680;2023-07-29T23:55:53;3.85;;;3.45;;
